Time;durP1;ratioP1;P1;durP2;ratioP2;P2;SDS_P1;SDS_P2;PMS_P1;PMS_P2;Temp;Humidity;BMP_temperature;BMP_pressure;BME280_temperature;BME280_humidity;BME280_pressure;Samples;Min_cycle;Max_cycle;Signal;HPM_P1;HPM_P2
2022/05/18 00:02:01;;;;;;;7.85;1.63;;;17.70;99.90;;;;;;5052780;28;20063;-60
2022/05/18 00:04:27;;;;;;;4.90;1.60;;;17.70;99.90;;;;;;5051722;28;20060;-57
2022/05/18 00:06:54;;;;;;;4.22;1.58;;;17.70;99.90;;;;;;5045514;28;20107;-58
2022/05/18 00:09:21;;;;;;;5.53;1.52;;;17.70;99.90;;;;;;5045810;28;20152;-58
2022/05/18 00:11:48;;;;;;;3.45;1.20;;;17.60;99.90;;;;;;5048950;28;20559;-60
2022/05/18 00:14:15;;;;;;;4.25;1.77;;;17.50;99.90;;;;;;5037911;28;20140;-58
2022/05/18 00:16:41;;;;;;;4.40;1.27;;;17.40;99.90;;;;;;5051936;28;20131;-58
2022/05/18 00:19:08;;;;;;;3.97;1.15;;;17.40;99.90;;;;;;5054561;28;20048;-58
2022/05/18 00:21:35;;;;;;;3.95;1.30;;;17.40;99.90;;;;;;5045333;28;20131;-58
2022/05/18 00:24:03;;;;;;;5.63;1.60;;;17.40;99.90;;;;;;5053357;28;20143;-58
2022/05/18 00:26:30;;;;;;;3.47;1.20;;;17.30;99.90;;;;;;5040574;28;20091;-58
2022/05/18 00:28:57;;;;;;;3.17;1.30;;;17.20;99.90;;;;;;5050770;28;20128;-56
2022/05/18 00:31:24;;;;;;;4.70;1.40;;;17.10;99.90;;;;;;5045225;28;20128;-58
2022/05/18 00:33:51;;;;;;;2.13;1.10;;;17.00;99.90;;;;;;5045724;28;20140;-58
2022/05/18 00:36:17;;;;;;;3.00;1.20;;;17.10;99.90;;;;;;5045694;28;20677;-57
2022/05/18 00:38:44;;;;;;;8.15;1.50;;;17.00;99.90;;;;;;5047913;28;20055;-58
2022/05/18 00:41:11;;;;;;;2.70;1.38;;;16.90;99.90;;;;;;5049927;28;20040;-58
2022/05/18 00:43:44;;;;;;;2.90;1.08;;;17.00;99.90;;;;;;5077637;28;20155;-56
2022/05/18 00:46:12;;;;;;;3.30;1.92;;;16.90;99.90;;;;;;5051265;28;20514;-57
2022/05/18 00:48:40;;;;;;;5.20;1.17;;;16.90;99.90;;;;;;5048421;28;20049;-58
2022/05/18 00:51:20;;;;;;;6.00;1.60;;;16.80;99.90;;;;;;5041165;28;20144;-57
2022/05/18 00:53:56;;;;;;;4.38;1.73;;;16.80;99.90;;;;;;5043862;28;20049;-57
2022/05/18 00:56:42;;;;;;;2.85;1.02;;;16.70;99.90;;;;;;5036522;28;20506;-57
2022/05/18 00:59:20;;;;;;;4.95;1.45;;;16.60;99.90;;;;;;5046762;28;20163;-58
2022/05/18 01:01:48;;;;;;;9.25;2.78;;;16.50;99.90;;;;;;5045358;28;20056;-58
2022/05/18 01:04:15;;;;;;;11.60;1.88;;;16.40;99.90;;;;;;5077696;28;20057;-57
2022/05/18 01:06:48;;;;;;;6.80;1.05;;;16.50;99.90;;;;;;5050372;28;20115;-57
2022/05/18 01:09:19;;;;;;;5.07;1.08;;;16.50;99.90;;;;;;5076212;28;20132;-58
2022/05/18 01:11:46;;;;;;;2.42;1.10;;;16.40;99.90;;;;;;5051292;28;20123;-57
2022/05/18 01:14:26;;;;;;;3.47;1.10;;;16.40;99.90;;;;;;5046056;28;20080;-57
2022/05/18 01:16:52;;;;;;;6.55;1.27;;;16.30;99.90;;;;;;5080363;28;20131;-58
2022/05/18 01:19:40;;;;;;;4.07;1.00;;;16.30;99.90;;;;;;5070023;28;20060;-57
2022/05/18 01:22:25;;;;;;;3.08;1.23;;;16.30;99.90;;;;;;5045104;28;20040;-57
2022/05/18 01:25:19;;;;;;;2.55;1.35;;;16.30;99.90;;;;;;5055643;28;20506;-57
2022/05/18 01:27:47;;;;;;;1.63;0.70;;;16.30;99.90;;;;;;5055296;28;20041;-58
2022/05/18 01:30:14;;;;;;;3.55;1.33;;;16.30;99.90;;;;;;5051666;28;20124;-58
2022/05/18 01:32:48;;;;;;;3.05;1.13;;;16.20;99.90;;;;;;5054686;28;20136;-57
2022/05/18 01:35:17;;;;;;;6.20;1.33;;;16.20;99.90;;;;;;5083421;28;20096;-57
2022/05/18 01:37:44;;;;;;;2.85;1.15;;;16.20;99.90;;;;;;5054874;28;20074;-59
2022/05/18 01:40:25;;;;;;;1.73;0.98;;;16.10;99.90;;;;;;5051009;28;20147;-57
2022/05/18 01:42:55;;;;;;;2.25;1.15;;;16.00;99.90;;;;;;5049911;28;20072;-57
2022/05/18 01:45:21;;;;;;;1.70;1.00;;;16.00;99.90;;;;;;5078575;28;20080;-58
2022/05/18 01:47:50;;;;;;;1.90;0.90;;;15.90;99.90;;;;;;5061749;28;20494;-56
2022/05/18 01:50:21;;;;;;;2.15;1.27;;;15.80;99.90;;;;;;5051244;28;20133;-58
2022/05/18 01:52:47;;;;;;;2.70;1.20;;;15.80;99.90;;;;;;5073781;28;20749;-57
2022/05/18 01:55:16;;;;;;;2.03;0.98;;;15.70;99.90;;;;;;5051688;28;20057;-57
2022/05/18 01:57:43;;;;;;;5.50;1.15;;;15.70;99.90;;;;;;5050871;28;20144;-59
2022/05/18 02:00:11;;;;;;;2.53;0.90;;;15.70;99.90;;;;;;5050536;28;20080;-57
2022/05/18 02:02:39;;;;;;;3.45;0.90;;;15.60;99.90;;;;;;5058637;28;20083;-56
2022/05/18 02:05:06;;;;;;;1.20;0.65;;;15.50;99.90;;;;;;5053222;28;20053;-58
2022/05/18 02:07:33;;;;;;;1.88;0.82;;;15.50;99.90;;;;;;5050881;28;20077;-55
2022/05/18 02:09:59;;;;;;;2.20;0.95;;;15.50;99.90;;;;;;5053480;28;20127;-56
2022/05/18 02:12:26;;;;;;;4.55;0.90;;;15.40;99.90;;;;;;5052702;28;20456;-58
2022/05/18 02:14:53;;;;;;;5.40;1.10;;;15.40;99.90;;;;;;5050924;28;20063;-57
2022/05/18 02:17:20;;;;;;;2.10;1.13;;;15.30;99.90;;;;;;5050634;28;20460;-57
2022/05/18 02:19:46;;;;;;;2.50;0.90;;;15.30;99.90;;;;;;5050362;28;20558;-59
2022/05/18 02:22:13;;;;;;;3.03;0.70;;;15.20;99.90;;;;;;5055145;28;20045;-58
2022/05/18 02:24:40;;;;;;;2.75;0.98;;;15.10;99.90;;;;;;5054908;28;20140;-58
2022/05/18 02:27:07;;;;;;;4.47;1.10;;;15.10;99.90;;;;;;5049675;28;20124;-58
2022/05/18 02:29:34;;;;;;;2.20;1.15;;;15.10;99.90;;;;;;5050718;28;20052;-57
2022/05/18 02:32:01;;;;;;;2.22;0.80;;;15.10;99.90;;;;;;5050402;28;20567;-57
2022/05/18 02:34:28;;;;;;;4.18;0.88;;;15.00;99.90;;;;;;5049926;28;20083;-57
2022/05/18 02:36:54;;;;;;;1.55;0.55;;;15.00;99.90;;;;;;5057338;28;20123;-57
2022/05/18 02:39:22;;;;;;;1.17;0.77;;;14.90;99.90;;;;;;5050338;28;20071;-56
2022/05/18 02:41:49;;;;;;;1.88;0.57;;;14.90;99.90;;;;;;5050671;28;20128;-56
2022/05/18 02:44:16;;;;;;;2.15;0.90;;;14.80;99.90;;;;;;5042328;28;20053;-56
2022/05/18 02:46:43;;;;;;;1.45;0.90;;;14.80;99.90;;;;;;5048705;28;20068;-58
2022/05/18 02:49:10;;;;;;;0.80;0.60;;;14.90;99.90;;;;;;5049946;28;20091;-57
2022/05/18 02:51:39;;;;;;;4.15;0.60;;;14.90;99.90;;;;;;5049488;28;20075;-57
2022/05/18 02:56:05;;;;;;;2.67;0.73;;;14.80;99.90;;;;;;5050423;28;20045;-56
2022/05/18 02:57:00;;;;;;;;;;;14.80;99.90;;;;;;5046580;28;20048;-53
2022/05/18 02:59:27;;;;;;;2.92;0.98;;;14.80;99.90;;;;;;5056215;28;20011;-57
2022/05/18 03:01:53;;;;;;;1.20;0.52;;;14.80;99.90;;;;;;5049143;28;20108;-58
2022/05/18 03:04:20;;;;;;;3.53;1.17;;;14.70;99.90;;;;;;5048961;28;20060;-57
2022/05/18 03:06:47;;;;;;;2.97;0.82;;;14.60;99.90;;;;;;5055154;28;20559;-58
2022/05/18 03:09:14;;;;;;;2.30;0.80;;;14.50;99.90;;;;;;5049375;28;20127;-58
2022/05/18 03:11:41;;;;;;;3.10;0.90;;;14.50;99.90;;;;;;5049116;28;20136;-59
2022/05/18 03:14:07;;;;;;;2.45;0.68;;;14.50;99.90;;;;;;5048828;28;20084;-57
2022/05/18 03:16:34;;;;;;;3.83;1.08;;;14.40;99.90;;;;;;5048002;28;20045;-55
2022/05/18 03:19:02;;;;;;;4.47;0.88;;;14.40;99.90;;;;;;4740959;28;10000949;-57
2022/05/18 03:24:14;;;;;;;2.45;0.95;;;14.40;99.90;;;;;;5056436;28;20502;-55
2022/05/18 03:26:42;;;;;;;2.03;0.98;;;14.30;99.90;;;;;;5056193;28;20144;-56
2022/05/18 03:29:09;;;;;;;2.58;0.80;;;14.30;99.90;;;;;;5056778;28;20132;-58
2022/05/18 03:31:35;;;;;;;2.50;1.02;;;14.30;99.90;;;;;;5048761;28;20057;-58
2022/05/18 03:34:02;;;;;;;1.88;0.68;;;14.40;99.90;;;;;;5049665;28;20135;-57
2022/05/18 03:36:29;;;;;;;1.90;0.77;;;14.30;99.90;;;;;;5048833;28;20575;-58
2022/05/18 03:38:56;;;;;;;3.80;0.88;;;14.30;99.90;;;;;;5055941;28;20124;-56
2022/05/18 03:41:23;;;;;;;5.68;0.70;;;14.30;99.90;;;;;;5048739;28;20052;-56
2022/05/18 03:43:50;;;;;;;1.85;0.70;;;14.30;99.90;;;;;;5048733;28;20123;-58
2022/05/18 03:46:16;;;;;;;4.13;0.93;;;14.20;99.90;;;;;;5050722;28;20106;-56
2022/05/18 03:48:43;;;;;;;7.47;0.90;;;14.30;99.90;;;;;;5051609;28;20052;-57
2022/05/18 03:51:12;;;;;;;2.05;1.27;;;14.30;99.90;;;;;;5053999;28;20148;-58
2022/05/18 03:53:39;;;;;;;2.15;1.00;;;14.30;99.90;;;;;;5048433;28;20041;-58
2022/05/18 03:56:05;;;;;;;2.65;0.73;;;14.30;99.90;;;;;;5044950;28;20072;-60
2022/05/18 03:58:32;;;;;;;3.20;1.00;;;14.30;99.90;;;;;;5048704;28;20127;-56
2022/05/18 04:01:00;;;;;;;3.55;1.23;;;14.20;99.90;;;;;;5055947;28;20483;-57
2022/05/18 04:03:28;;;;;;;2.63;0.80;;;14.20;99.90;;;;;;5039597;28;20068;-55
2022/05/18 04:05:55;;;;;;;1.77;0.88;;;14.10;99.90;;;;;;5056911;28;20089;-60
2022/05/18 04:08:21;;;;;;;2.45;0.82;;;14.10;99.90;;;;;;5048477;28;20052;-57
2022/05/18 04:10:48;;;;;;;4.57;1.42;;;14.00;99.90;;;;;;5059282;28;20110;-57
2022/05/18 04:13:17;;;;;;;5.50;1.15;;;14.00;99.90;;;;;;5049112;28;20076;-56
2022/05/18 04:15:44;;;;;;;2.47;0.93;;;14.00;99.90;;;;;;5053882;28;20055;-58
2022/05/18 04:18:10;;;;;;;2.67;1.33;;;14.00;99.90;;;;;;5058084;28;20080;-57
2022/05/18 04:20:38;;;;;;;2.20;0.82;;;14.00;99.90;;;;;;5048361;28;20439;-57
2022/05/18 04:23:05;;;;;;;3.03;1.10;;;14.00;99.90;;;;;;5048103;28;20049;-57
2022/05/18 04:25:32;;;;;;;1.33;0.70;;;14.00;99.90;;;;;;5050595;28;20080;-58
2022/05/18 04:27:59;;;;;;;4.18;0.73;;;14.00;99.90;;;;;;5048334;28;20045;-58
2022/05/18 04:30:26;;;;;;;3.42;0.82;;;14.00;99.90;;;;;;5047980;28;20053;-56
2022/05/18 04:32:53;;;;;;;2.50;0.85;;;14.00;99.90;;;;;;5058239;28;20124;-57
2022/05/18 04:35:22;;;;;;;3.60;1.02;;;14.00;99.90;;;;;;5049945;28;20128;-57
2022/05/18 04:37:50;;;;;;;2.40;0.82;;;13.90;99.90;;;;;;5048653;28;20063;-57
2022/05/18 04:40:16;;;;;;;1.70;0.88;;;13.90;99.90;;;;;;5056726;28;20559;-57
2022/05/18 04:42:43;;;;;;;11.55;1.55;;;13.90;99.90;;;;;;5051338;28;20041;-57
2022/05/18 04:45:12;;;;;;;4.13;0.90;;;13.90;99.90;;;;;;5047870;28;20052;-57
2022/05/18 04:47:38;;;;;;;4.00;0.98;;;13.90;99.90;;;;;;5055790;28;20045;-57
2022/05/18 04:50:06;;;;;;;1.90;1.23;;;13.90;99.90;;;;;;5053823;28;20088;-57
2022/05/18 04:52:33;;;;;;;3.55;1.00;;;13.90;99.90;;;;;;5047843;28;20102;-56
2022/05/18 04:54:59;;;;;;;2.92;0.63;;;13.90;99.90;;;;;;5047956;28;20611;-59
2022/05/18 04:57:26;;;;;;;3.25;0.70;;;13.90;99.90;;;;;;5037807;28;20653;-58
2022/05/18 04:59:53;;;;;;;5.03;0.98;;;13.90;99.90;;;;;;5040160;28;20819;-60
2022/05/18 05:02:21;;;;;;;8.45;1.02;;;14.00;99.90;;;;;;5072907;28;20056;-58
2022/05/18 05:04:48;;;;;;;5.82;1.30;;;14.00;99.90;;;;;;5046330;28;20053;-57
2022/05/18 05:07:14;;;;;;;6.40;1.75;;;14.00;99.90;;;;;;5055563;28;20063;-60
2022/05/18 05:09:41;;;;;;;6.22;1.52;;;14.00;99.90;;;;;;5055012;28;20136;-58
2022/05/18 05:12:08;;;;;;;4.43;1.38;;;14.00;99.90;;;;;;5047113;28;20132;-58
2022/05/18 05:14:39;;;;;;;2.90;1.02;;;14.10;99.90;;;;;;5047828;28;20127;-56
2022/05/18 05:17:06;;;;;;;2.63;0.90;;;14.10;99.90;;;;;;5049034;28;20136;-55
2022/05/18 05:19:34;;;;;;;4.25;1.38;;;14.10;99.90;;;;;;5053373;28;20114;-56
2022/05/18 05:22:01;;;;;;;5.25;1.08;;;14.10;99.90;;;;;;5046190;28;20075;-57
2022/05/18 05:24:28;;;;;;;6.82;1.58;;;14.10;99.90;;;;;;5055897;28;20569;-56
2022/05/18 05:26:55;;;;;;;10.60;1.30;;;14.10;99.90;;;;;;5047351;28;20068;-57
2022/05/18 05:29:22;;;;;;;6.13;1.40;;;14.10;99.90;;;;;;5047587;28;20968;-62
2022/05/18 05:31:48;;;;;;;7.03;1.08;;;14.20;99.90;;;;;;5048653;28;20127;-58
2022/05/18 05:34:15;;;;;;;13.15;2.03;;;14.30;99.90;;;;;;5055080;28;20122;-58
2022/05/18 05:36:42;;;;;;;8.00;0.85;;;14.30;99.90;;;;;;5047034;28;20076;-58
2022/05/18 05:39:09;;;;;;;4.75;1.23;;;14.30;99.90;;;;;;5047180;28;20076;-58
2022/05/18 05:41:38;;;;;;;10.43;1.50;;;14.40;99.90;;;;;;5055239;28;20049;-58
2022/05/18 05:44:05;;;;;;;5.75;0.60;;;14.40;99.90;;;;;;5084596;28;20072;-57
2022/05/18 05:46:32;;;;;;;3.13;1.13;;;14.50;99.90;;;;;;5049109;28;20118;-59
2022/05/18 05:48:59;;;;;;;4.70;1.60;;;14.50;99.90;;;;;;5050899;28;20072;-57
2022/05/18 05:51:26;;;;;;;8.80;1.35;;;14.60;99.90;;;;;;5046723;28;20474;-58
2022/05/18 05:53:52;;;;;;;2.70;1.30;;;14.60;99.90;;;;;;5047505;28;20068;-59
2022/05/18 05:56:20;;;;;;;4.22;1.25;;;14.60;99.90;;;;;;5049337;28;20072;-58
2022/05/18 05:58:48;;;;;;;7.45;1.33;;;14.60;99.90;;;;;;5051019;28;20045;-58
2022/05/18 06:01:15;;;;;;;8.02;1.10;;;14.60;99.90;;;;;;5049497;28;20048;-58
2022/05/18 06:03:42;;;;;;;13.20;1.85;;;14.60;99.90;;;;;;5050153;28;20098;-58
2022/05/18 06:06:10;;;;;;;7.75;1.60;;;14.50;99.90;;;;;;5059300;28;20060;-58
2022/05/18 06:08:37;;;;;;;4.45;1.58;;;14.40;99.90;;;;;;5052268;28;20098;-58
2022/05/18 06:11:04;;;;;;;7.43;1.92;;;14.40;99.90;;;;;;5050717;28;20048;-56
2022/05/18 06:13:31;;;;;;;2.67;0.95;;;14.40;99.90;;;;;;5056224;28;20056;-60
2022/05/18 06:15:58;;;;;;;10.07;2.00;;;14.50;99.90;;;;;;5052628;28;20131;-59
2022/05/18 06:18:25;;;;;;;4.88;1.35;;;14.50;99.90;;;;;;5053551;28;20045;-58
2022/05/18 06:20:53;;;;;;;5.93;1.27;;;14.60;99.90;;;;;;5062927;28;20081;-59
2022/05/18 06:23:19;;;;;;;4.28;1.15;;;14.70;99.90;;;;;;5053690;28;20118;-57
2022/05/18 06:25:46;;;;;;;9.43;1.30;;;14.80;99.90;;;;;;5064720;28;20057;-57
2022/05/18 06:28:13;;;;;;;6.65;2.10;;;14.90;99.90;;;;;;5055780;28;20076;-57
2022/05/18 06:30:41;;;;;;;8.23;1.60;;;14.90;99.90;;;;;;5058476;28;20087;-57
2022/05/18 06:33:09;;;;;;;8.23;1.50;;;14.90;99.90;;;;;;5056062;28;20045;-56
2022/05/18 06:35:36;;;;;;;5.25;1.55;;;15.00;99.90;;;;;;5063087;28;20052;-58
2022/05/18 06:38:13;;;;;;;4.88;1.38;;;15.00;99.90;;;;;;5038900;28;20166;-56
2022/05/18 06:43:26;;;;;;;5.75;1.48;;;15.10;99.90;;;;;;5042479;28;20073;-54
2022/05/18 06:45:53;;;;;;;7.03;1.70;;;15.10;99.90;;;;;;5090576;28;20045;-53
2022/05/18 06:48:20;;;;;;;11.85;1.63;;;15.10;99.90;;;;;;5056910;28;20098;-61
2022/05/18 06:51:07;;;;;;;8.77;1.98;;;15.20;99.90;;;;;;5058782;28;20045;-56
2022/05/18 06:53:34;;;;;;;6.18;1.63;;;15.20;99.90;;;;;;5055089;28;20080;-54
2022/05/18 06:56:01;;;;;;;7.07;2.10;;;15.20;99.90;;;;;;5051984;28;20095;-54
2022/05/18 06:58:31;;;;;;;17.30;2.60;;;15.30;99.90;;;;;;5057159;28;20041;-56
2022/05/18 07:01:01;;;;;;;7.53;1.58;;;15.40;99.90;;;;;;5052457;28;20107;-56
2022/05/18 07:03:29;;;;;;;8.82;1.88;;;15.50;99.90;;;;;;5049060;28;20627;-55
2022/05/18 07:05:55;;;;;;;10.30;1.88;;;15.50;99.90;;;;;;5053258;28;20080;-56
2022/05/18 07:08:22;;;;;;;6.60;1.80;;;15.60;99.90;;;;;;5056625;28;20085;-56
2022/05/18 07:10:49;;;;;;;3.75;1.45;;;15.60;99.90;;;;;;5053247;28;20051;-57
2022/05/18 07:13:18;;;;;;;5.00;1.90;;;15.70;99.90;;;;;;5055888;28;20094;-57
2022/05/18 07:15:45;;;;;;;6.32;2.00;;;15.80;99.90;;;;;;5053845;28;20045;-55
2022/05/18 07:18:13;;;;;;;5.18;2.03;;;15.90;99.90;;;;;;5057159;28;20053;-58
2022/05/18 07:20:40;;;;;;;7.07;1.48;;;15.90;99.90;;;;;;5054387;28;20052;-56
2022/05/18 07:23:06;;;;;;;6.65;1.88;;;16.00;99.90;;;;;;5059608;28;20041;-56
2022/05/18 07:25:33;;;;;;;6.40;1.77;;;16.00;99.90;;;;;;5049624;28;20139;-57
2022/05/18 07:28:01;;;;;;;5.85;1.63;;;16.10;99.90;;;;;;5064785;28;20090;-56
2022/05/18 07:30:52;;;;;;;6.63;1.77;;;16.20;99.90;;;;;;5049502;28;20045;-58
2022/05/18 07:33:20;;;;;;;4.05;1.23;;;16.30;99.90;;;;;;5056560;28;20483;-57
2022/05/18 07:35:47;;;;;;;8.73;1.30;;;16.40;99.90;;;;;;5056155;28;20487;-57
2022/05/18 07:38:14;;;;;;;8.05;1.52;;;16.40;99.90;;;;;;5061118;28;20072;-59
2022/05/18 07:41:01;;;;;;;5.75;2.20;;;16.40;99.90;;;;;;5050488;28;20420;-58
2022/05/18 07:43:27;;;;;;;8.48;2.15;;;16.50;99.90;;;;;;5058053;28;20045;-56
2022/05/18 07:45:55;;;;;;;4.10;1.58;;;16.50;99.90;;;;;;5050613;28;20045;-54
2022/05/18 07:48:22;;;;;;;12.35;2.00;;;16.60;99.90;;;;;;5059352;28;20048;-55
2022/05/18 07:50:49;;;;;;;10.68;2.42;;;16.60;99.90;;;;;;5034738;28;20080;-57
2022/05/18 07:53:16;;;;;;;12.20;2.00;;;16.70;99.90;;;;;;5048411;28;20076;-62
2022/05/18 07:55:43;;;;;;;10.90;2.30;;;16.70;99.90;;;;;;5055833;28;20506;-57
2022/05/18 07:58:11;;;;;;;10.90;1.98;;;16.70;99.90;;;;;;5052431;28;20041;-58
2022/05/18 08:00:38;;;;;;;12.95;2.75;;;16.80;99.90;;;;;;5052837;28;20088;-57
2022/05/18 08:03:05;;;;;;;9.55;2.10;;;16.80;99.90;;;;;;5052727;28;20762;-52
2022/05/18 08:05:33;;;;;;;7.55;1.58;;;16.80;99.90;;;;;;5057353;28;20358;-56
2022/05/18 08:08:07;;;;;;;8.35;2.40;;;16.80;99.90;;;;;;5049366;28;20057;-53
2022/05/18 08:16:05;;;;;;;7.93;1.95;;;17.00;99.90;;;;;;5055694;28;20132;-56
2022/05/18 08:18:33;;;;;;;7.47;2.33;;;17.20;99.90;;;;;;5084981;28;20076;-55
2022/05/18 08:20:59;;;;;;;12.07;1.75;;;17.30;99.90;;;;;;5055591;28;20077;-57
2022/05/18 08:23:26;;;;;;;9.93;2.13;;;17.30;99.90;;;;;;5054602;28;20136;-59
2022/05/18 08:25:57;;;;;;;6.28;1.83;;;17.30;99.90;;;;;;5053869;28;20506;-55
2022/05/18 08:28:24;;;;;;;6.10;1.50;;;17.50;99.90;;;;;;5055896;28;20045;-54
2022/05/18 08:30:51;;;;;;;5.85;1.20;;;17.50;99.90;;;;;;5057449;28;20083;-55
2022/05/18 08:33:18;;;;;;;11.15;1.75;;;17.50;99.90;;;;;;5050126;28;20045;-56
2022/05/18 08:35:45;;;;;;;10.02;1.60;;;17.60;99.90;;;;;;5054484;28;20053;-59
2022/05/18 08:38:12;;;;;;;15.68;1.83;;;17.70;99.90;;;;;;5052943;28;20044;-54
2022/05/18 08:40:50;;;;;;;3.83;1.20;;;17.80;99.90;;;;;;5047332;28;20084;-57
2022/05/18 08:43:26;;;;;;;15.57;2.50;;;17.90;99.90;;;;;;5054339;28;20499;-56
2022/05/18 08:46:15;;;;;;;10.23;1.85;;;17.90;99.90;;;;;;5057620;28;20515;-56
2022/05/18 08:48:47;;;;;;;9.13;1.90;;;18.00;99.90;;;;;;5054510;28;20044;-55
2022/05/18 08:51:24;;;;;;;6.22;1.38;;;18.00;99.90;;;;;;5054837;28;20511;-57
2022/05/18 08:54:16;;;;;;;7.85;1.63;;;18.00;99.90;;;;;;5051440;28;20099;-60
2022/05/18 08:56:43;;;;;;;9.70;1.60;;;18.00;99.50;;;;;;5088116;28;20525;-58
2022/05/18 08:59:16;;;;;;;7.38;1.60;;;18.10;99.90;;;;;;5056570;28;20083;-56
2022/05/18 09:01:46;;;;;;;7.40;1.55;;;18.20;99.80;;;;;;5053896;28;20080;-56
2022/05/18 09:04:25;;;;;;;5.22;1.58;;;18.20;99.20;;;;;;5056027;28;20166;-57
2022/05/18 09:06:57;;;;;;;4.95;1.10;;;18.40;97.80;;;;;;5055335;28;20055;-56
2022/05/18 09:12:36;;;;;;;10.45;1.40;;;18.60;97.50;;;;;;5058449;28;20551;-56
2022/05/18 09:15:04;;;;;;;7.93;2.70;;;18.70;98.20;;;;;;5054329;28;20466;-54
2022/05/18 09:17:36;;;;;;;7.55;1.45;;;18.70;97.80;;;;;;5052237;28;20072;-55
2022/05/18 09:20:29;;;;;;;7.47;1.73;;;18.80;97.40;;;;;;5053637;28;20113;-54
2022/05/18 09:23:14;;;;;;;5.22;1.48;;;18.70;95.70;;;;;;5087574;28;20069;-56
2022/05/18 09:26:03;;;;;;;7.95;1.77;;;18.60;96.90;;;;;;5048505;28;20072;-56
2022/05/18 09:28:53;;;;;;;10.43;1.20;;;18.70;95.10;;;;;;5075974;28;20580;-56
2022/05/18 09:31:49;;;;;;;6.15;1.13;;;18.70;94.60;;;;;;5051084;28;20041;-54
2022/05/18 09:34:48;;;;;;;14.65;1.55;;;18.70;92.70;;;;;;5051988;28;20045;-53
2022/05/18 09:37:33;;;;;;;11.05;2.42;;;18.80;95.10;;;;;;5054360;28;20061;-56
2022/05/18 09:40:08;;;;;;;5.90;1.30;;;19.00;96.20;;;;;;5055376;28;20128;-56
2022/05/18 09:42:38;;;;;;;6.78;1.02;;;19.10;95.50;;;;;;5063025;28;20080;-56
2022/05/18 09:45:08;;;;;;;4.78;0.95;;;19.10;95.10;;;;;;5050013;28;20045;-56
2022/05/18 09:47:45;;;;;;;8.38;2.38;;;19.10;94.30;;;;;;5064423;28;20044;-56
2022/05/18 09:50:12;;;;;;;8.63;1.63;;;19.10;93.50;;;;;;5055971;28;20056;-59
2022/05/18 09:52:40;;;;;;;11.35;1.70;;;19.20;94.90;;;;;;5051799;28;20123;-56
2022/05/18 09:55:09;;;;;;;8.55;1.73;;;19.20;94.40;;;;;;5058424;28;20073;-57
2022/05/18 09:57:55;;;;;;;7.50;1.73;;;19.50;94.50;;;;;;5056387;28;20122;-55
2022/05/18 10:00:29;;;;;;;10.40;1.65;;;19.80;94.30;;;;;;5051753;28;20130;-55
2022/05/18 10:08:36;;;;;;;5.00;0.98;;;20.70;93.00;;;;;;5088552;28;20124;-56
2022/05/18 10:11:14;;;;;;;3.47;1.05;;;20.70;92.40;;;;;;5054247;28;20045;-57
2022/05/18 10:13:43;;;;;;;8.82;1.50;;;20.90;92.30;;;;;;5090616;28;20071;-55
2022/05/18 10:16:15;;;;;;;9.15;1.92;;;21.20;93.40;;;;;;5055077;28;20045;-57
2022/05/18 10:18:53;;;;;;;10.13;2.07;;;21.40;92.90;;;;;;5085082;28;20123;-57
2022/05/18 10:21:33;;;;;;;8.90;1.77;;;21.60;92.40;;;;;;5054486;28;20559;-54
2022/05/18 10:24:06;;;;;;;8.00;1.75;;;21.70;91.60;;;;;;5056652;28;20076;-56
2022/05/18 10:26:35;;;;;;;8.13;2.70;;;21.90;92.00;;;;;;5054213;28;20487;-57
2022/05/18 10:29:21;;;;;;;9.95;2.70;;;22.00;91.30;;;;;;5056504;28;20075;-55
2022/05/18 10:32:24;;;;;;;10.25;1.65;;;22.00;90.40;;;;;;5054564;28;20045;-58
2022/05/18 10:34:52;;;;;;;7.40;2.00;;;21.90;88.10;;;;;;5038422;28;20069;-57
2022/05/18 10:37:30;;;;;;;4.82;1.98;;;22.20;91.10;;;;;;5053240;28;20317;-57
2022/05/18 10:40:14;;;;;;;6.78;1.73;;;22.50;88.10;;;;;;5050266;28;20296;-57
2022/05/18 10:42:52;;;;;;;9.35;1.58;;;22.70;89.40;;;;;;5049333;28;20131;-57
2022/05/18 10:45:39;;;;;;;7.85;1.33;;;22.70;85.80;;;;;;5051733;28;20049;-57
2022/05/18 10:48:12;;;;;;;8.70;1.75;;;22.30;85.90;;;;;;5055821;28;20131;-57
2022/05/18 10:50:39;;;;;;;6.15;1.60;;;22.10;89.30;;;;;;5059243;28;20139;-55
2022/05/18 10:53:15;;;;;;;7.60;1.98;;;21.90;88.20;;;;;;5050235;28;20140;-56
2022/05/18 10:55:57;;;;;;;5.28;1.75;;;21.70;86.60;;;;;;5042660;28;20488;-54
2022/05/18 10:58:30;;;;;;;7.40;1.70;;;21.70;89.20;;;;;;5057265;28;20487;-57
2022/05/18 11:01:04;;;;;;;5.90;1.25;;;21.50;86.20;;;;;;5049779;28;20476;-55
2022/05/18 11:04:05;;;;;;;4.38;1.30;;;21.30;87.00;;;;;;5047918;28;20049;-53
2022/05/18 11:06:37;;;;;;;3.80;1.00;;;21.20;87.80;;;;;;5056922;28;20080;-57
2022/05/18 11:09:06;;;;;;;7.55;1.85;;;21.30;89.00;;;;;;5049006;28;20500;-56
2022/05/18 11:11:57;;;;;;;6.35;1.10;;;21.30;89.40;;;;;;5074435;28;20037;-57
2022/05/18 11:14:58;;;;;;;8.13;1.27;;;21.30;88.70;;;;;;5048855;28;20056;-56
2022/05/18 11:18:04;;;;;;;4.38;1.30;;;21.50;86.40;;;;;;5047802;28;20072;-58
2022/05/18 11:20:39;;;;;;;6.75;1.08;;;21.50;84.20;;;;;;5047453;28;20049;-56
2022/05/18 11:23:25;;;;;;;6.60;1.30;;;21.50;85.30;;;;;;5047760;28;20084;-57
2022/05/18 11:25:58;;;;;;;10.27;2.67;;;21.40;84.90;;;;;;5062569;28;20486;-56
2022/05/18 11:28:50;;;;;;;4.63;1.10;;;21.40;89.40;;;;;;5039453;28;20041;-58
2022/05/18 11:31:31;;;;;;;9.30;2.60;;;21.60;85.40;;;;;;5037522;28;20076;-58
2022/05/18 11:34:04;;;;;;;6.82;1.20;;;21.70;86.60;;;;;;5052021;28;20056;-55
2022/05/18 11:36:49;;;;;;;6.07;2.47;;;21.70;86.00;;;;;;5048818;28;20132;-54
2022/05/18 11:39:42;;;;;;;11.32;1.48;;;21.70;83.60;;;;;;5054142;28;20041;-55
2022/05/18 11:42:23;;;;;;;6.10;1.25;;;21.70;83.20;;;;;;5048191;28;20053;-55
2022/05/18 11:44:54;;;;;;;6.18;1.90;;;21.70;79.10;;;;;;5048599;28;20041;-54
2022/05/18 11:47:32;;;;;;;3.25;0.73;;;21.80;81.20;;;;;;5055430;28;20152;-56
2022/05/18 11:50:05;;;;;;;3.45;1.20;;;21.80;77.30;;;;;;5047900;28;20040;-55
2022/05/18 11:53:05;;;;;;;7.57;1.50;;;21.80;80.80;;;;;;5044743;28;20044;-56
2022/05/18 11:55:47;;;;;;;10.00;2.85;;;21.80;84.20;;;;;;5077088;28;20037;-55
2022/05/18 11:58:53;;;;;;;4.82;1.70;;;21.90;77.80;;;;;;5040520;28;20049;-55
2022/05/18 12:02:05;;;;;;;4.55;1.45;;;22.00;75.10;;;;;;5044817;28;20103;-57
2022/05/18 12:04:51;;;;;;;10.93;1.55;;;22.10;77.20;;;;;;5043467;28;20076;-57
2022/05/18 12:07:44;;;;;;;5.47;1.17;;;22.20;79.00;;;;;;5054622;28;20595;-57
2022/05/18 12:10:14;;;;;;;7.13;1.25;;;22.20;75.00;;;;;;5050894;28;20126;-56
2022/05/18 12:13:07;;;;;;;4.38;1.20;;;22.20;76.10;;;;;;5050668;28;20073;-56
2022/05/18 12:15:59;;;;;;;11.27;1.30;;;22.40;75.40;;;;;;5050212;28;20088;-57
2022/05/18 12:18:33;;;;;;;4.22;1.30;;;22.40;74.10;;;;;;5053896;28;20044;-57
2022/05/18 12:21:04;;;;;;;4.60;1.10;;;22.50;77.70;;;;;;5051089;28;20132;-57
2022/05/18 12:23:33;;;;;;;8.02;2.05;;;22.60;76.90;;;;;;5047012;28;20135;-55
2022/05/18 12:25:59;;;;;;;4.00;1.00;;;22.60;78.00;;;;;;5049375;28;20579;-56
2022/05/18 12:28:27;;;;;;;2.75;1.00;;;22.60;77.10;;;;;;5047126;28;20137;-56
2022/05/18 12:30:55;;;;;;;4.82;0.93;;;22.70;77.40;;;;;;5053943;28;20127;-57
2022/05/18 12:33:22;;;;;;;3.72;0.90;;;22.70;77.50;;;;;;5055413;28;20063;-57
2022/05/18 12:36:00;;;;;;;4.75;1.08;;;22.80;77.40;;;;;;5082884;28;20080;-57
2022/05/18 12:38:56;;;;;;;9.93;1.42;;;22.80;72.50;;;;;;5052037;28;20045;-55
2022/05/18 12:41:27;;;;;;;5.15;1.02;;;22.80;70.00;;;;;;5046771;28;20048;-55
2022/05/18 12:44:07;;;;;;;1.85;0.80;;;22.80;72.60;;;;;;5048564;28;20128;-53
2022/05/18 12:46:45;;;;;;;4.65;1.20;;;22.90;71.40;;;;;;5046604;28;20071;-57
2022/05/18 12:49:19;;;;;;;5.82;1.55;;;23.00;71.70;;;;;;5047928;28;20106;-55
2022/05/18 12:52:23;;;;;;;7.45;1.20;;;23.10;72.90;;;;;;5055578;28;20127;-57
2022/05/18 12:54:53;;;;;;;4.43;1.08;;;23.20;71.70;;;;;;5026516;28;20068;-57
2022/05/18 12:57:44;;;;;;;4.38;1.10;;;23.20;73.70;;;;;;5047361;28;20107;-57
2022/05/18 13:00:52;;;;;;;5.38;1.20;;;23.20;67.30;;;;;;5073452;28;20056;-56
2022/05/18 13:03:23;;;;;;;6.82;1.35;;;23.20;68.40;;;;;;5007228;28;20041;-56
2022/05/18 13:05:56;;;;;;;2.53;0.82;;;23.40;70.50;;;;;;5040295;28;20496;-54
2022/05/18 13:08:22;;;;;;;6.47;1.23;;;23.40;71.50;;;;;;5079412;28;20500;-55
2022/05/18 13:11:29;;;;;;;6.05;1.08;;;23.50;72.90;;;;;;5046597;28;20496;-57
2022/05/18 13:14:51;;;;;;;5.97;1.10;;;23.60;68.70;;;;;;5030273;28;20119;-53
2022/05/18 13:17:18;;;;;;;5.22;1.15;;;23.70;71.10;;;;;;5039566;28;20072;-55
2022/05/18 13:20:06;;;;;;;3.22;1.05;;;23.70;72.00;;;;;;5047874;28;20041;-57
2022/05/18 13:22:47;;;;;;;4.20;1.10;;;23.70;72.40;;;;;;5052043;28;20123;-56
2022/05/18 13:25:14;;;;;;;3.65;1.10;;;23.80;70.70;;;;;;5055816;28;20130;-56
2022/05/18 13:27:49;;;;;;;3.95;1.35;;;23.80;68.70;;;;;;5050509;28;20098;-54
2022/05/18 13:30:22;;;;;;;7.13;1.17;;;23.90;69.50;;;;;;5047823;28;20120;-53
2022/05/18 13:32:49;;;;;;;;;;;23.90;71.20;;;;;;5054336;28;20107;-51